Time;durP1;ratioP1;P1;durP2;ratioP2;P2;SDS_P1;SDS_P2;PMS_P1;PMS_P2;Temp;Humidity;BMP_temperature;BMP_pressure;BME280_temperature;BME280_humidity;BME280_pressure;Samples;Min_cycle;Max_cycle;Signal;HPM_P1;HPM_P2
2021/09/10 00:00:27;;;;;;;5.65;3.05;;;;;;;-140.79;100.00;63287.88;5048333;28;20028;-75
2021/09/10 00:02:52;;;;;;;5.57;2.80;;;;;;;-140.79;100.00;63287.88;5047882;28;20028;-74
2021/09/10 00:05:18;;;;;;;6.32;3.10;;;;;;;-140.79;100.00;63287.88;5047761;28;20061;-75
2021/09/10 00:07:43;;;;;;;6.45;3.35;;;;;;;-140.79;100.00;63287.88;5015132;28;20120;-75
2021/09/10 00:10:09;;;;;;;3.83;2.72;;;;;;;-140.79;100.00;63287.88;5027783;28;20036;-74
2021/09/10 00:12:35;;;;;;;6.05;3.00;;;;;;;-140.79;100.00;63287.88;5027306;28;20113;-73
2021/09/10 00:15:00;;;;;;;4.65;2.67;;;;;;;-140.79;100.00;63287.88;5044345;28;20040;-74
2021/09/10 00:17:26;;;;;;;5.78;2.83;;;;;;;-140.79;100.00;63287.88;5047204;28;20025;-74
2021/09/10 00:19:51;;;;;;;4.95;3.00;;;;;;;-140.79;100.00;63287.88;5028767;28;20033;-75
2021/09/10 00:22:17;;;;;;;4.68;2.72;;;;;;;-140.79;100.00;63287.88;5047072;28;20036;-75
2021/09/10 00:24:42;;;;;;;8.52;3.63;;;;;;;-140.79;100.00;63287.88;5046705;28;20032;-73
2021/09/10 00:27:08;;;;;;;5.88;3.35;;;;;;;-140.79;100.00;63287.88;5028337;28;20032;-74
2021/09/10 00:29:33;;;;;;;6.13;2.92;;;;;;;-140.79;100.00;63287.88;5047363;28;20033;-74
2021/09/10 00:31:59;;;;;;;5.43;2.97;;;;;;;-140.79;100.00;63287.88;5024107;28;20052;-75
2021/09/10 00:34:24;;;;;;;6.07;3.47;;;;;;;-140.79;100.00;63287.88;5027654;28;20034;-74
2021/09/10 00:36:49;;;;;;;4.93;3.03;;;;;;;-140.79;100.00;63287.88;5008491;28;20044;-74
2021/09/10 00:39:17;;;;;;;3.88;2.72;;;;;;;-140.79;100.00;63287.88;5027042;28;20032;-74
2021/09/10 00:41:43;;;;;;;3.88;3.10;;;;;;;-140.79;100.00;63287.88;5027405;28;20048;-74
2021/09/10 00:44:08;;;;;;;7.72;3.33;;;;;;;-140.79;100.00;63287.88;5042281;28;20051;-74
2021/09/10 00:46:33;;;;;;;6.47;3.15;;;;;;;-140.79;100.00;63287.88;5029172;28;20032;-74
2021/09/10 00:48:59;;;;;;;5.75;3.15;;;;;;;-140.79;100.00;63287.88;5046473;28;20096;-74
2021/09/10 00:51:24;;;;;;;4.05;2.75;;;;;;;-140.79;100.00;63287.88;5037892;28;20117;-74
2021/09/10 00:53:50;;;;;;;3.55;2.58;;;;;;;-140.79;100.00;63287.88;5016546;28;20037;-74
2021/09/10 00:56:15;;;;;;;4.75;2.95;;;;;;;-140.79;100.00;63287.88;5026937;28;20530;-74
2021/09/10 00:58:41;;;;;;;5.03;3.13;;;;;;;-140.79;100.00;63287.88;5008975;28;20025;-75
2021/09/10 01:01:06;;;;;;;4.15;2.72;;;;;;;-140.79;100.00;63287.88;5008914;28;20017;-74
2021/09/10 01:03:32;;;;;;;6.35;3.15;;;;;;;-140.79;100.00;63287.88;5008496;28;20095;-74
2021/09/10 01:05:58;;;;;;;5.82;2.90;;;;;;;-140.79;100.00;63287.88;5008972;28;20546;-72
2021/09/10 01:08:23;;;;;;;4.30;2.78;;;;;;;-140.79;100.00;63287.88;5043870;28;20043;-74
2021/09/10 01:10:50;;;;;;;5.32;2.92;;;;;;;-140.79;100.00;63287.88;5046457;28;20032;-72
2021/09/10 01:13:15;;;;;;;5.63;3.00;;;;;;;-140.79;100.00;63287.88;5045349;28;20695;-74
2021/09/10 01:15:41;;;;;;;4.32;2.60;;;;;;;-140.79;100.00;63287.88;5044808;28;20195;-74
2021/09/10 01:18:06;;;;;;;4.10;2.72;;;;;;;-140.79;100.00;63287.88;5012803;28;20033;-74
2021/09/10 01:20:32;;;;;;;6.47;2.80;;;;;;;-140.79;100.00;63287.88;5025439;28;20033;-74
2021/09/10 01:22:57;;;;;;;5.53;3.17;;;;;;;-140.79;100.00;63287.88;5025739;28;20025;-74
2021/09/10 01:25:23;;;;;;;4.72;2.42;;;;;;;-140.79;100.00;63287.88;5026484;28;20053;-74
2021/09/10 01:27:50;;;;;;;6.07;3.33;;;;;;;-140.79;100.00;63287.88;5022160;28;20446;-75
2021/09/10 01:30:17;;;;;;;4.93;2.97;;;;;;;-140.79;100.00;63287.88;5046338;28;20546;-74
2021/09/10 01:32:43;;;;;;;4.70;2.70;;;;;;;-140.79;100.00;63287.88;5044614;28;20547;-74
2021/09/10 01:35:09;;;;;;;4.20;2.50;;;;;;;-140.79;100.00;63287.88;5046216;28;20112;-73
2021/09/10 01:37:35;;;;;;;3.42;2.80;;;;;;;-140.79;100.00;63287.88;5045111;28;20025;-74
2021/09/10 01:40:00;;;;;;;6.95;3.03;;;;;;;-140.79;100.00;63287.88;5045098;28;20419;-74
2021/09/10 01:42:26;;;;;;;6.55;3.10;;;;;;;-140.79;100.00;63287.88;5046084;28;20561;-74
2021/09/10 01:44:52;;;;;;;5.97;3.15;;;;;;;-140.79;100.00;63287.88;5046619;28;20033;-74
2021/09/10 01:47:17;;;;;;;5.38;2.90;;;;;;;-140.79;100.00;63287.88;5045874;28;20100;-74
2021/09/10 01:49:43;;;;;;;5.95;3.10;;;;;;;-140.79;100.00;63287.88;5039503;28;20552;-75
2021/09/10 01:52:08;;;;;;;3.78;2.83;;;;;;;-140.79;100.00;63287.88;5044944;28;20032;-75
2021/09/10 01:54:34;;;;;;;4.40;2.75;;;;;;;-140.79;100.00;63287.88;5044425;28;20075;-73
2021/09/10 01:56:59;;;;;;;4.50;2.60;;;;;;;-140.79;100.00;63287.88;5026744;28;20577;-75
2021/09/10 01:59:25;;;;;;;5.57;2.70;;;;;;;-140.79;100.00;63287.88;5045890;28;20029;-75
2021/09/10 02:01:50;;;;;;;3.70;2.60;;;;;;;-140.79;100.00;63287.88;5027575;28;20031;-75
2021/09/10 02:04:18;;;;;;;4.35;2.45;;;;;;;-140.79;100.00;63287.88;5045554;28;20079;-75
2021/09/10 02:06:43;;;;;;;4.80;3.38;;;;;;;-140.79;100.00;63287.88;5044960;28;20025;-74
2021/09/10 02:09:09;;;;;;;4.50;2.88;;;;;;;-140.79;100.00;63287.88;5045621;28;20060;-75
2021/09/10 02:11:34;;;;;;;4.45;2.92;;;;;;;-140.79;100.00;63287.88;5044676;28;20028;-74
2021/09/10 02:14:00;;;;;;;3.63;2.80;;;;;;;-140.79;100.00;63287.88;5043963;28;20435;-75
2021/09/10 02:16:25;;;;;;;5.45;2.83;;;;;;;-140.79;100.00;63287.88;5044692;28;20492;-73
2021/09/10 02:18:51;;;;;;;5.28;2.80;;;;;;;-140.79;100.00;63287.88;5044333;28;20032;-75
2021/09/10 02:21:16;;;;;;;5.25;2.65;;;;;;;-140.79;100.00;63287.88;5044487;28;20032;-75
2021/09/10 02:23:42;;;;;;;4.72;2.60;;;;;;;-140.79;100.00;63287.88;5027433;28;20032;-75
2021/09/10 02:26:07;;;;;;;4.00;2.60;;;;;;;-140.79;100.00;63287.88;5044465;28;20028;-74
2021/09/10 02:28:33;;;;;;;5.68;2.85;;;;;;;-140.79;100.00;63287.88;5045290;28;20032;-75
2021/09/10 02:30:58;;;;;;;5.63;2.90;;;;;;;-140.79;100.00;63287.88;5045216;28;20049;-74
2021/09/10 02:33:23;;;;;;;3.88;2.72;;;;;;;-140.79;100.00;63287.88;5039607;28;20519;-73
2021/09/10 02:35:49;;;;;;;4.68;2.70;;;;;;;-140.79;100.00;63287.88;5044209;28;20028;-74
2021/09/10 02:38:14;;;;;;;5.70;2.65;;;;;;;-140.79;100.00;63287.88;5024782;28;20038;-74
2021/09/10 02:40:40;;;;;;;5.25;2.60;;;;;;;-140.79;100.00;63287.88;5023434;28;20026;-74
2021/09/10 02:43:05;;;;;;;5.38;2.50;;;;;;;-140.79;100.00;63287.88;5031065;28;20103;-75
2021/09/10 02:45:31;;;;;;;8.00;3.10;;;;;;;-140.79;100.00;63287.88;5044943;28;20029;-74
2021/09/10 02:47:56;;;;;;;4.60;2.90;;;;;;;-140.79;100.00;63287.88;5043825;28;20028;-74
2021/09/10 02:50:22;;;;;;;4.68;2.97;;;;;;;-140.79;100.00;63287.88;5044203;28;20032;-75
2021/09/10 02:52:49;;;;;;;3.90;2.35;;;;;;;-140.79;100.00;63287.88;5044075;28;20029;-75
2021/09/10 02:55:14;;;;;;;4.13;2.63;;;;;;;-140.79;100.00;63287.88;5045019;28;20116;-75
2021/09/10 02:57:40;;;;;;;4.93;3.03;;;;;;;-140.79;100.00;63287.88;5026516;28;20087;-75
2021/09/10 03:00:06;;;;;;;4.05;2.72;;;;;;;-140.79;100.00;63287.88;5026168;28;20037;-75
2021/09/10 03:02:31;;;;;;;5.35;2.95;;;;;;;-140.79;100.00;63287.88;5044444;28;20518;-75
2021/09/10 03:04:56;;;;;;;9.20;3.13;;;;;;;-140.79;100.00;63287.88;5025868;28;20052;-73
2021/09/10 03:07:22;;;;;;;4.00;2.60;;;;;;;-140.79;100.00;63287.88;5041382;28;20033;-74
2021/09/10 03:09:47;;;;;;;3.30;2.60;;;;;;;-140.79;100.00;63287.88;5044687;28;20029;-74
2021/09/10 03:12:13;;;;;;;4.43;2.88;;;;;;;-140.79;100.00;63287.88;5042602;28;20681;-74
2021/09/10 03:14:38;;;;;;;6.00;2.83;;;;;;;-140.79;100.00;63287.88;5044622;28;20435;-74
2021/09/10 03:17:04;;;;;;;7.30;2.60;;;;;;;-140.79;100.00;63287.88;5042789;28;20430;-74
2021/09/10 03:19:29;;;;;;;3.47;2.30;;;;;;;-140.79;100.00;63287.88;5026203;28;20435;-75
2021/09/10 03:21:55;;;;;;;4.50;2.63;;;;;;;-140.79;100.00;63287.88;5044376;28;20114;-75
2021/09/10 03:24:20;;;;;;;5.70;3.08;;;;;;;-140.79;100.00;63287.88;5047244;28;20166;-75
2021/09/10 03:26:46;;;;;;;6.35;2.75;;;;;;;-140.79;100.00;63287.88;5047796;28;20541;-74
2021/09/10 03:29:12;;;;;;;8.20;2.95;;;;;;;-140.79;100.00;63287.88;5048432;28;20024;-73
2021/09/10 03:31:38;;;;;;;5.47;2.70;;;;;;;-140.79;100.00;63287.88;5047121;28;20454;-75
2021/09/10 03:34:03;;;;;;;3.55;2.60;;;;;;;-140.79;100.00;63287.88;5048793;28;20041;-75
2021/09/10 03:36:29;;;;;;;4.47;2.88;;;;;;;-140.79;100.00;63287.88;5047621;28;20209;-74
2021/09/10 03:38:54;;;;;;;4.57;2.75;;;;;;;-140.79;100.00;63287.88;5047263;28;20043;-75
2021/09/10 03:41:19;;;;;;;4.40;2.40;;;;;;;-140.79;100.00;63287.88;5030421;28;20416;-74
2021/09/10 03:43:49;;;;;;;3.63;3.00;;;;;;;-140.79;100.00;63287.88;5047438;28;20502;-74
2021/09/10 03:46:14;;;;;;;5.13;2.90;;;;;;;-140.79;100.00;63287.88;5048468;28;20029;-74
2021/09/10 03:48:40;;;;;;;4.68;2.60;;;;;;;-140.79;100.00;63287.88;5030013;28;20052;-75
2021/09/10 03:51:05;;;;;;;3.65;2.45;;;;;;;-140.79;100.00;63287.88;5019540;28;20021;-75
2021/09/10 03:53:31;;;;;;;3.90;2.50;;;;;;;-140.79;100.00;63287.88;5018067;28;20025;-75
2021/09/10 03:55:56;;;;;;;3.85;2.38;;;;;;;-140.79;100.00;63287.88;5023472;28;20029;-75
2021/09/10 03:58:22;;;;;;;4.03;2.47;;;;;;;-140.79;100.00;63287.88;5027603;28;20021;-74
2021/09/10 04:00:47;;;;;;;2.95;2.10;;;;;;;-140.79;100.00;63287.88;5021344;28;20029;-76
2021/09/10 04:03:13;;;;;;;2.85;2.03;;;;;;;-140.79;100.00;63287.88;5017939;28;20070;-77
2021/09/10 04:05:38;;;;;;;6.00;2.08;;;;;;;-140.79;100.00;63287.88;5015563;28;20037;-78
2021/09/10 04:08:04;;;;;;;4.25;2.45;;;;;;;-140.79;100.00;63287.88;5022242;28;20033;-75
2021/09/10 04:10:29;;;;;;;4.00;2.00;;;;;;;-140.79;100.00;63287.88;5027697;28;20047;-76
2021/09/10 04:12:55;;;;;;;4.05;2.00;;;;;;;-140.79;100.00;63287.88;5027341;28;20104;-78
2021/09/10 04:15:20;;;;;;;2.95;2.20;;;;;;;-140.79;100.00;63287.88;5024480;28;20112;-78
2021/09/10 04:17:46;;;;;;;3.40;1.83;;;;;;;-140.79;100.00;63287.88;5026959;28;20030;-78
2021/09/10 04:20:13;;;;;;;4.85;2.08;;;;;;;-140.79;100.00;63287.88;5027163;28;20033;-78
2021/09/10 04:22:39;;;;;;;4.03;2.40;;;;;;;-140.79;100.00;63287.88;5025695;28;20068;-81
2021/09/10 04:25:05;;;;;;;3.65;2.00;;;;;;;-140.79;100.00;63287.88;5026467;28;20053;-81
2021/09/10 04:27:30;;;;;;;3.78;1.88;;;;;;;-140.79;100.00;63287.88;5026808;28;20665;-80
2021/09/10 04:29:58;;;;;;;2.83;2.08;;;;;;;-140.79;100.00;63287.88;5026653;28;20748;-78
2021/09/10 04:32:23;;;;;;;4.30;2.05;;;;;;;-140.79;100.00;63287.88;5026820;28;20077;-80
2021/09/10 04:34:49;;;;;;;2.75;2.10;;;;;;;-140.79;100.00;63287.88;5025903;28;20543;-78
2021/09/10 04:37:14;;;;;;;3.70;2.28;;;;;;;-140.79;100.00;63287.88;5026529;28;20043;-79
2021/09/10 04:39:40;;;;;;;3.13;1.95;;;;;;;-140.79;100.00;63287.88;5011350;28;20026;-73
2021/09/10 04:42:05;;;;;;;2.28;1.70;;;;;;;-140.79;100.00;63287.88;5012642;28;20450;-75
2021/09/10 04:44:31;;;;;;;2.67;1.80;;;;;;;-140.79;100.00;63287.88;5009370;28;20028;-84
2021/09/10 04:46:56;;;;;;;2.88;1.98;;;;;;;-140.79;100.00;63287.88;5010242;28;20022;-82
2021/09/10 04:49:22;;;;;;;3.58;2.00;;;;;;;-140.79;100.00;63287.88;5008789;28;20022;-83
2021/09/10 04:51:47;;;;;;;2.92;1.90;;;;;;;-140.79;100.00;63287.88;5008454;28;20026;-83
2021/09/10 04:54:15;;;;;;;2.38;1.80;;;;;;;-140.79;100.00;63287.88;5007276;28;20762;-77
2021/09/10 04:56:42;;;;;;;3.40;1.98;;;;;;;-140.79;100.00;63287.88;5009603;28;20025;-80
2021/09/10 04:59:07;;;;;;;2.80;1.88;;;;;;;-140.79;100.00;63287.88;5009222;28;20033;-81
2021/09/10 05:01:32;;;;;;;4.18;1.92;;;;;;;-140.79;100.00;63287.88;5008742;28;20022;-81
2021/09/10 05:03:58;;;;;;;3.22;1.90;;;;;;;-140.79;100.00;63287.88;5012561;28;20052;-83
2021/09/10 05:06:24;;;;;;;3.67;1.83;;;;;;;-140.79;100.00;63287.88;5008396;28;20022;-78
2021/09/10 05:08:49;;;;;;;2.80;2.10;;;;;;;-140.79;100.00;63287.88;5011090;28;20026;-84
2021/09/10 05:11:15;;;;;;;5.35;2.00;;;;;;;-140.79;100.00;63287.88;5007148;28;20025;-81
2021/09/10 05:13:40;;;;;;;3.53;1.83;;;;;;;-140.79;100.00;63287.88;5006957;28;20030;-83
2021/09/10 05:16:06;;;;;;;3.10;2.20;;;;;;;-140.79;100.00;63287.88;5008560;28;20033;-84
2021/09/10 05:18:31;;;;;;;4.03;1.85;;;;;;;-140.79;100.00;63287.88;5011131;28;20072;-83
2021/09/10 05:20:59;;;;;;;2.80;1.90;;;;;;;-140.79;100.00;63287.88;5007197;28;20142;-79
2021/09/10 05:23:24;;;;;;;3.80;2.10;;;;;;;-140.79;100.00;63287.88;5009469;28;20038;-77
2021/09/10 05:25:50;;;;;;;4.00;2.10;;;;;;;-140.79;100.00;63287.88;5013011;28;20033;-77
2021/09/10 05:28:15;;;;;;;4.47;1.83;;;;;;;-140.79;100.00;63287.88;5008972;28;20045;-78
2021/09/10 05:30:41;;;;;;;3.83;1.95;;;;;;;-140.79;100.00;63287.88;5006029;28;20038;-83
2021/09/10 05:33:06;;;;;;;2.85;1.85;;;;;;;-140.79;100.00;63287.88;5024857;28;20407;-79
2021/09/10 05:35:32;;;;;;;4.60;1.95;;;;;;;-140.79;100.00;63287.88;5026505;28;20036;-79
2021/09/10 05:37:57;;;;;;;4.50;1.90;;;;;;;-140.79;100.00;63287.88;5014318;28;20493;-84
2021/09/10 05:40:23;;;;;;;3.00;1.65;;;;;;;-140.79;100.00;63287.88;5007215;28;20758;-78
2021/09/10 05:42:49;;;;;;;2.63;2.00;;;;;;;-140.79;100.00;63287.88;5010870;28;20022;-84
2021/09/10 05:45:15;;;;;;;3.03;2.00;;;;;;;-140.79;100.00;63287.88;5006546;28;20018;-81
2021/09/10 05:47:40;;;;;;;3.13;1.80;;;;;;;-140.79;100.00;63287.88;5007979;28;20029;-84
2021/09/10 05:50:06;;;;;;;5.53;1.70;;;;;;;-140.79;100.00;63287.88;5012461;28;20033;-75
2021/09/10 05:52:32;;;;;;;3.80;2.08;;;;;;;-140.79;100.00;63287.88;5025602;28;20037;-77
2021/09/10 05:54:57;;;;;;;4.95;1.80;;;;;;;-140.79;100.00;63287.88;5010247;28;20567;-74
2021/09/10 05:57:23;;;;;;;3.22;1.90;;;;;;;-140.79;100.00;63287.88;5008374;28;20536;-76
2021/09/10 05:59:48;;;;;;;4.50;1.90;;;;;;;-140.79;100.00;63287.88;5018894;28;20037;-76
2021/09/10 06:02:14;;;;;;;4.63;2.00;;;;;;;-140.79;100.00;63287.88;5008727;28;20034;-78
2021/09/10 06:04:39;;;;;;;3.03;1.60;;;;;;;-140.79;100.00;63287.88;5005302;28;20057;-79
2021/09/10 06:07:05;;;;;;;3.10;2.05;;;;;;;-140.79;100.00;63287.88;5024213;28;20033;-82
2021/09/10 06:09:31;;;;;;;4.57;1.98;;;;;;;-140.79;100.00;63287.88;5024487;28;20040;-82
2021/09/10 06:11:57;;;;;;;3.08;2.10;;;;;;;-140.79;100.00;63287.88;5025971;28;20033;-80
2021/09/10 06:14:22;;;;;;;4.63;1.77;;;;;;;-140.79;100.00;63287.88;5026217;28;20029;-85
2021/09/10 06:16:48;;;;;;;5.88;1.70;;;;;;;-140.79;100.00;63287.88;5024865;28;20071;-79
2021/09/10 06:19:13;;;;;;;3.47;1.88;;;;;;;-140.79;100.00;63287.88;5025560;28;20068;-75
2021/09/10 06:21:39;;;;;;;3.90;2.00;;;;;;;-140.79;100.00;63287.88;5025455;28;20420;-84
2021/09/10 06:24:04;;;;;;;6.28;2.10;;;;;;;-140.79;100.00;63287.88;5021115;28;20034;-80
2021/09/10 06:26:30;;;;;;;3.60;1.85;;;;;;;-140.79;100.00;63287.88;5014865;28;20072;-80
2021/09/10 06:28:55;;;;;;;5.32;2.25;;;;;;;-140.79;100.00;63287.88;5010411;28;20028;-82
2021/09/10 06:31:21;;;;;;;3.78;1.95;;;;;;;-140.79;100.00;63287.88;5005977;28;20681;-82
2021/09/10 06:33:46;;;;;;;4.35;1.90;;;;;;;-140.79;100.00;63287.88;5008127;28;20040;-82
2021/09/10 06:36:11;;;;;;;2.92;1.67;;;;;;;-140.79;100.00;63287.88;5011794;28;20061;-79
2021/09/10 06:38:37;;;;;;;3.45;1.73;;;;;;;-140.79;100.00;63287.88;5006446;28;20025;-77
2021/09/10 06:41:02;;;;;;;4.10;2.00;;;;;;;-140.79;100.00;63287.88;5008156;28;20523;-75
2021/09/10 06:43:28;;;;;;;2.97;1.95;;;;;;;-140.79;100.00;63287.88;5007439;28;20254;-76
2021/09/10 06:45:53;;;;;;;3.40;1.92;;;;;;;-140.79;100.00;63287.88;5007284;28;20076;-77
2021/09/10 06:48:19;;;;;;;3.10;1.90;;;;;;;-140.79;100.00;63287.88;5007395;28;20029;-78
2021/09/10 06:50:44;;;;;;;3.97;2.03;;;;;;;-140.79;100.00;63287.88;5004950;28;20242;-74
2021/09/10 06:53:09;;;;;;;3.47;2.28;;;;;;;-140.79;100.00;63287.88;5005708;28;20018;-75
2021/09/10 06:55:35;;;;;;;3.47;1.80;;;;;;;-140.79;100.00;63287.88;5008515;28;20411;-73
2021/09/10 06:58:01;;;;;;;3.47;1.85;;;;;;;-140.79;100.00;63287.88;5006161;28;20083;-73
2021/09/10 07:00:26;;;;;;;3.53;2.08;;;;;;;-140.79;100.00;63287.88;5007385;28;20029;-76
2021/09/10 07:02:52;;;;;;;3.30;1.95;;;;;;;-140.79;100.00;63287.88;5008572;28;20108;-73
2021/09/10 07:05:17;;;;;;;4.07;2.10;;;;;;;-140.79;100.00;63287.88;5004920;28;20111;-75
2021/09/10 07:07:45;;;;;;;4.18;2.20;;;;;;;-140.79;100.00;63287.88;5004921;28;20014;-74
2021/09/10 07:10:10;;;;;;;2.88;1.92;;;;;;;-140.79;100.00;63287.88;5005432;28;20144;-73
2021/09/10 07:12:36;;;;;;;3.83;1.85;;;;;;;-140.79;100.00;63287.88;5008307;28;20022;-77
2021/09/10 07:15:01;;;;;;;4.00;1.85;;;;;;;-140.79;100.00;63287.88;5006665;28;20043;-73
2021/09/10 07:17:28;;;;;;;5.40;1.98;;;;;;;-140.79;100.00;63287.88;5006284;28;20483;-75
2021/09/10 07:19:53;;;;;;;3.25;2.20;;;;;;;-140.79;100.00;63287.88;5007379;28;20029;-74
2021/09/10 07:22:19;;;;;;;4.93;1.98;;;;;;;-140.79;100.00;63287.88;5006897;28;20026;-75
2021/09/10 07:24:44;;;;;;;12.93;4.53;;;;;;;-140.79;100.00;63287.88;5023382;28;20029;-73
2021/09/10 07:27:09;;;;;;;8.50;3.20;;;;;;;-140.79;100.00;63287.88;5024292;28;20026;-74
2021/09/10 07:29:35;;;;;;;5.97;2.53;;;;;;;-140.79;100.00;63287.88;5015817;28;20033;-72
2021/09/10 07:32:00;;;;;;;5.65;2.55;;;;;;;-140.79;100.00;63287.88;5022844;28;20025;-76
2021/09/10 07:34:26;;;;;;;5.03;2.83;;;;;;;-140.79;100.00;63287.88;5025016;28;20033;-75
2021/09/10 07:36:52;;;;;;;6.25;2.42;;;;;;;-140.79;100.00;63287.88;5024651;28;20047;-78
2021/09/10 07:39:18;;;;;;;5.88;2.50;;;;;;;-140.79;100.00;63287.88;5024667;28;20021;-78
2021/09/10 07:41:44;;;;;;;6.03;2.20;;;;;;;-140.79;100.00;63287.88;5024431;28;20022;-77
2021/09/10 07:44:10;;;;;;;4.78;2.38;;;;;;;-140.79;100.00;63287.88;5024607;28;20033;-79
2021/09/10 07:46:35;;;;;;;5.50;2.60;;;;;;;-140.79;100.00;63287.88;5024835;28;20025;-78
2021/09/10 07:49:01;;;;;;;5.97;2.28;;;;;;;-140.79;100.00;63287.88;5023134;28;20488;-78
2021/09/10 07:51:26;;;;;;;5.35;2.35;;;;;;;-140.79;100.00;63287.88;5023290;28;20029;-77
2021/09/10 07:53:52;;;;;;;3.70;2.28;;;;;;;-140.79;100.00;63287.88;5023729;28;20025;-78
2021/09/10 07:56:17;;;;;;;6.47;2.40;;;;;;;-140.79;100.00;63287.88;5024644;28;20021;-80
2021/09/10 07:58:43;;;;;;;5.25;2.13;;;;;;;-140.79;100.00;63287.88;5024531;28;20113;-79
2021/09/10 08:01:08;;;;;;;3.03;2.17;;;;;;;-140.79;100.00;63287.88;5024536;28;20033;-77
2021/09/10 08:03:34;;;;;;;8.15;2.78;;;;;;;-140.79;100.00;63287.88;5025222;28;20045;-77
2021/09/10 08:06:00;;;;;;;4.90;2.10;;;;;;;-140.79;100.00;63287.88;5024644;28;20563;-76
2021/09/10 08:08:26;;;;;;;4.13;2.10;;;;;;;-140.79;100.00;63287.88;5007049;28;20419;-78
2021/09/10 08:10:51;;;;;;;4.53;2.20;;;;;;;-140.79;100.00;63287.88;5026336;28;20041;-78
2021/09/10 08:13:17;;;;;;;3.03;2.00;;;;;;;-140.79;100.00;63287.88;5027861;28;20041;-76
2021/09/10 08:15:43;;;;;;;3.78;2.03;;;;;;;-140.79;100.00;63287.88;5028199;28;20780;-74
2021/09/10 08:18:08;;;;;;;5.10;1.95;;;;;;;-140.79;100.00;63287.88;5028571;28;20017;-76
2021/09/10 08:20:34;;;;;;;4.85;2.65;;;;;;;-140.79;100.00;63287.88;5010111;28;20055;-77
2021/09/10 08:22:59;;;;;;;3.50;2.40;;;;;;;-140.79;100.00;63287.88;5027342;28;20463;-80
2021/09/10 08:25:25;;;;;;;4.03;2.03;;;;;;;-140.79;100.00;63287.88;5028211;28;20017;-79
2021/09/10 08:27:50;;;;;;;2.90;2.03;;;;;;;-140.79;100.00;63287.88;5027353;28;20051;-78
2021/09/10 08:30:16;;;;;;;3.40;2.00;;;;;;;-140.79;100.00;63287.88;5027782;28;20025;-78
2021/09/10 08:32:41;;;;;;;5.32;2.17;;;;;;;-140.79;100.00;63287.88;5028948;28;20021;-85
2021/09/10 08:35:07;;;;;;;5.00;2.00;;;;;;;-140.79;100.00;63287.88;5027939;28;20021;-78
2021/09/10 08:37:32;;;;;;;4.30;2.45;;;;;;;-140.79;100.00;63287.88;5031787;28;20027;-78
2021/09/10 08:39:58;;;;;;;4.78;1.95;;;;;;;-140.79;100.00;63287.88;5026844;28;20693;-80
2021/09/10 08:42:24;;;;;;;3.22;1.95;;;;;;;-140.79;100.00;63287.88;5027181;28;20503;-79
2021/09/10 08:44:49;;;;;;;3.72;1.95;;;;;;;-140.79;100.00;63287.88;5027743;28;20036;-81
2021/09/10 08:47:15;;;;;;;3.78;2.17;;;;;;;-140.79;100.00;63287.88;5009688;28;20333;-82
2021/09/10 08:49:41;;;;;;;3.83;2.25;;;;;;;-140.79;100.00;63287.88;5027829;28;20794;-80
2021/09/10 08:52:10;;;;;;;4.40;2.08;;;;;;;-140.79;100.00;63287.88;5027726;28;20424;-80
2021/09/10 08:54:35;;;;;;;4.55;1.90;;;;;;;-140.79;100.00;63287.88;5027660;28;20071;-80
2021/09/10 08:57:01;;;;;;;3.60;2.05;;;;;;;-140.79;100.00;63287.88;5009743;28;20033;-77
2021/09/10 08:59:26;;;;;;;3.95;1.98;;;;;;;-140.79;100.00;63287.88;5026694;28;20061;-77
2021/09/10 09:01:53;;;;;;;3.20;1.83;;;;;;;-140.79;100.00;63287.88;5024953;28;20141;-73
2021/09/10 09:04:20;;;;;;;4.13;1.90;;;;;;;-140.79;100.00;63287.88;5024166;28;20076;-74
2021/09/10 09:06:56;;;;;;;3.92;2.20;;;;;;;-140.79;100.00;63287.88;5009730;28;20037;-74
2021/09/10 09:09:46;;;;;;;2.80;1.77;;;;;;;-140.79;100.00;63287.88;5008255;28;20044;-75
2021/09/10 09:12:12;;;;;;;3.75;1.95;;;;;;;-140.79;100.00;63287.88;5010397;28;20030;-74
2021/09/10 09:14:56;;;;;;;3.65;1.98;;;;;;;-140.79;100.00;63287.88;5026691;28;20411;-77
2021/09/10 09:17:32;;;;;;;2.90;1.80;;;;;;;-140.79;100.00;63287.88;5023159;28;20041;-77
2021/09/10 09:20:19;;;;;;;3.80;1.60;;;;;;;-140.79;100.00;63287.88;5014020;28;20041;-77
2021/09/10 09:22:51;;;;;;;4.15;1.80;;;;;;;-140.79;100.00;63287.88;5019412;28;20035;-76
2021/09/10 09:25:17;;;;;;;4.15;1.80;;;;;;;-140.79;100.00;63287.88;5026224;28;20039;-77
2021/09/10 09:27:42;;;;;;;3.25;1.80;;;;;;;-140.79;100.00;63287.88;5008752;28;20029;-79
2021/09/10 09:30:08;;;;;;;3.33;1.83;;;;;;;-140.79;100.00;63287.88;5025951;28;20025;-80
2021/09/10 09:32:52;;;;;;;3.05;1.70;;;;;;;-140.79;100.00;63287.88;5008491;28;20108;-78
2021/09/10 09:35:18;;;;;;;8.52;2.15;;;;;;;-140.79;100.00;63287.88;5026295;28;20033;-77
2021/09/10 09:37:43;;;;;;;6.68;2.20;;;;;;;-140.79;100.00;63287.88;5025732;28;20487;-75
2021/09/10 09:40:09;;;;;;;3.22;1.70;;;;;;;-140.79;100.00;63287.88;5025158;28;20048;-75
2021/09/10 09:42:35;;;;;;;4.60;1.70;;;;;;;-140.79;100.00;63287.88;5026021;28;20057;-76
2021/09/10 09:45:14;;;;;;;4.10;1.85;;;;;;;-140.79;100.00;63287.88;5025856;28;20029;-78
2021/09/10 09:47:40;;;;;;;3.92;1.70;;;;;;;-140.79;100.00;63287.88;5017814;28;20055;-76
2021/09/10 09:50:10;;;;;;;5.55;1.60;;;;;;;-140.79;100.00;63287.88;5026194;28;20018;-83
2021/09/10 09:52:36;;;;;;;3.42;1.60;;;;;;;-140.79;100.00;63287.88;5026088;28;20021;-72
2021/09/10 09:55:05;;;;;;;4.75;1.80;;;;;;;-140.79;100.00;63287.88;5026272;28;20060;-73
2021/09/10 09:57:31;;;;;;;6.15;1.80;;;;;;;-140.79;100.00;63287.88;5024975;28;20299;-76
2021/09/10 09:59:57;;;;;;;4.15;2.10;;;;;;;-140.79;100.00;63287.88;5025534;28;20562;-72
2021/09/10 10:02:23;;;;;;;5.43;1.73;;;;;;;-140.79;100.00;63287.88;5024678;28;20052;-71
2021/09/10 10:04:48;;;;;;;4.55;1.70;;;;;;;-140.79;100.00;63287.88;5025298;28;20049;-71
2021/09/10 10:07:14;;;;;;;4.93;1.70;;;;;;;-140.79;100.00;63287.88;5023979;28;20041;-73
2021/09/10 10:09:41;;;;;;;4.28;1.80;;;;;;;-140.79;100.00;63287.88;5007783;28;20029;-70
2021/09/10 10:12:07;;;;;;;3.03;1.63;;;;;;;-140.79;100.00;63287.88;5024504;28;20103;-72
2021/09/10 10:14:34;;;;;;;3.17;1.92;;;;;;;-140.79;100.00;63287.88;5024857;28;20481;-72
2021/09/10 10:17:02;;;;;;;3.75;1.23;;;;;;;-140.79;100.00;63287.88;5024494;28;20525;-72
2021/09/10 10:19:34;;;;;;;3.58;1.65;;;;;;;-140.79;100.00;63287.88;5007486;28;20407;-72
2021/09/10 10:22:04;;;;;;;3.30;1.50;;;;;;;-140.79;100.00;63287.88;5016755;28;20036;-71
2021/09/10 10:24:56;;;;;;;3.42;1.20;;;;;;;-140.79;100.00;63287.88;5021898;28;20025;-72
2021/09/10 10:27:39;;;;;;;3.80;1.40;;;;;;;-140.79;100.00;63287.88;5019442;28;20124;-73
2021/09/10 10:30:28;;;;;;;2.95;1.50;;;;;;;-140.79;100.00;63287.88;5023973;28;20056;-72
2021/09/10 10:32:54;;;;;;;3.38;1.42;;;;;;;-140.79;100.00;63287.88;5022423;28;20029;-72
2021/09/10 10:35:27;;;;;;;3.60;1.65;;;;;;;-140.79;100.00;63287.88;5024671;28;20044;-71
2021/09/10 10:38:01;;;;;;;4.85;2.60;;;;;;;-140.79;100.00;63287.88;5015738;28;20029;-71
2021/09/10 10:40:30;;;;;;;4.95;1.40;;;;;;;-140.79;100.00;63287.88;5024644;28;20033;-73
2021/09/10 10:42:58;;;;;;;3.65;1.33;;;;;;;-140.79;100.00;63287.88;5016709;28;20591;-73
2021/09/10 10:45:46;;;;;;;4.00;1.63;;;;;;;-140.79;100.00;63287.88;5005609;28;20115;-72
2021/09/10 10:48:33;;;;;;;3.30;1.23;;;;;;;-140.79;100.00;63287.88;5023221;28;20029;-72
2021/09/10 10:51:04;;;;;;;5.60;2.03;;;;;;;-140.79;100.00;63287.88;5024463;28;20030;-73
2021/09/10 10:53:45;;;;;;;4.90;1.50;;;;;;;-140.79;100.00;63287.88;5022292;28;20026;-72
2021/09/10 10:56:29;;;;;;;2.63;1.42;;;;;;;-140.79;100.00;63287.88;5017041;28;20026;-73
2021/09/10 10:59:24;;;;;;;1.92;1.30;;;;;;;-140.79;100.00;63287.88;5019009;28;20060;-74
2021/09/10 11:02:21;;;;;;;3.15;1.67;;;;;;;-140.79;100.00;63287.88;5024471;28;20104;-73
2021/09/10 11:04:47;;;;;;;3.38;1.48;;;;;;;-140.79;100.00;63287.88;5027021;28;20053;-76
2021/09/10 11:07:13;;;;;;;2.90;1.10;;;;;;;-140.79;100.00;63287.88;5034810;28;20034;-70